BON214K FACT-KMIA
Flight info
| Callsign | BON214K |
|---|---|
| Flight time | N/A |
| Altitude | 30000 |
| Route | IMSOM1B IMSOM UQ36 APKIN UQ15 OKDOG DCT 3230S010E 31S005E 2830S00000E 2730S00500W 26S010W 2330S01500W 2030S02000W/N0490F320 17S025W 13S030W 0930S03230W 05S035W/N0483F340 0130N04000W DCT BOLIL DCT 07N050W DCT 1055N/N0476F360 DCT BGI UA555 ILURI Y185 ACONY Y308 MADIZ VIICE2 |
| Aircraft | A346/H-SDE2E3FGHIJ3J4J5M1RWXY/LB1D1 |
Departure
| Time | 2026-05-06 19:22 |
|---|---|
| Airport | Cape Town International Airport (FACT) |
Arrival
| Time | N/A |
|---|---|
| Airport | Miami International Airport (KMIA) |
| Time | Latitude | Longitude | Altitude | Speed | Heading |
|---|---|---|---|---|---|
| 2026-05-06 18:54 | -33.96832 | 18.59786 | 165 ft | 0 kts | 256° |
| 2026-05-06 19:13 | -33.96831 | 18.59788 | 165 ft | 2 kts | 256° |
| 2026-05-06 19:14 | -33.96824 | 18.59817 | 165 ft | 4 kts | 251° |
| 2026-05-06 19:14 | -33.96818 | 18.59842 | 165 ft | 4 kts | 276° |
| 2026-05-06 19:14 | -33.96824 | 18.59861 | 165 ft | 4 kts | 303° |
| 2026-05-06 19:14 | -33.96839 | 18.59878 | 165 ft | 4 kts | 335° |
| 2026-05-06 19:15 | -33.96863 | 18.59886 | 165 ft | 4 kts | 348° |
| 2026-05-06 19:15 | -33.96873 | 18.59888 | 165 ft | 0 kts | 347° |
| 2026-05-06 19:17 | -33.96868 | 18.59887 | 165 ft | 3 kts | 347° |
| 2026-05-06 19:17 | -33.96822 | 18.59874 | 165 ft | 9 kts | 346° |
| 2026-05-06 19:17 | -33.96760 | 18.59854 | 165 ft | 10 kts | 343° |
| 2026-05-06 19:18 | -33.96690 | 18.59830 | 165 ft | 11 kts | 345° |
| 2026-05-06 19:18 | -33.96610 | 18.59809 | 165 ft | 12 kts | 348° |
| 2026-05-06 19:18 | -33.96522 | 18.59785 | 165 ft | 13 kts | 347° |
| 2026-05-06 19:18 | -33.96429 | 18.59762 | 165 ft | 14 kts | 349° |
| 2026-05-06 19:19 | -33.96332 | 18.59740 | 165 ft | 14 kts | 349° |
| 2026-05-06 19:19 | -33.96266 | 18.59727 | 165 ft | 14 kts | 359° |
| 2026-05-06 19:19 | -33.96167 | 18.59800 | 162 ft | 2 kts | 44° |
| 2026-05-06 19:19 | -33.96156 | 18.59813 | 162 ft | 4 kts | 44° |
| 2026-05-06 19:20 | -33.96131 | 18.59843 | 163 ft | 4 kts | 44° |
| 2026-05-06 19:20 | -33.96115 | 18.59861 | 163 ft | 6 kts | 44° |
| 2026-05-06 19:20 | -33.96057 | 18.59930 | 162 ft | 12 kts | 49° |
| 2026-05-06 19:20 | -33.96063 | 18.60024 | 162 ft | 14 kts | 144° |
| 2026-05-06 19:21 | -33.96254 | 18.60094 | 161 ft | 57 kts | 165° |
| 2026-05-06 19:21 | -33.96826 | 18.60278 | 168 ft | 112 kts | 165° |
| 2026-05-06 19:21 | -33.97753 | 18.60567 | 163 ft | 160 kts | 166° |
| 2026-05-06 19:21 | -33.98926 | 18.60936 | 389 ft | 176 kts | 164° |
| 2026-05-06 19:22 | -34.00082 | 18.61323 | 1040 ft | 173 kts | 164° |
| 2026-05-06 19:22 | -34.01285 | 18.61733 | 1444 ft | 187 kts | 162° |
| 2026-05-06 19:22 | -34.02631 | 18.61952 | 1751 ft | 208 kts | 189° |